createdAt,value
2023-05-02T00:01:06.863Z,5.57
2023-05-02T00:03:49.873Z,5.30
2023-05-02T00:06:18.980Z,6.28
2023-05-02T00:08:47.515Z,5.60
2023-05-02T00:11:15.914Z,5.90
2023-05-02T00:13:46.633Z,5.53
2023-05-02T00:16:15.843Z,5.68
2023-05-02T00:18:47.890Z,6.35
2023-05-02T00:21:21.423Z,5.85
2023-05-02T00:23:50.442Z,6.20
2023-05-02T00:26:31.086Z,6.15
2023-05-02T00:29:02.304Z,5.30
2023-05-02T00:31:33.787Z,6.15
2023-05-02T00:34:03.104Z,6.50
2023-05-02T00:36:36.229Z,7.20
2023-05-02T00:39:05.424Z,6.63
2023-05-02T00:41:35.653Z,7.60
2023-05-02T00:44:04.319Z,7.75
2023-05-02T00:46:32.951Z,8.13
2023-05-02T00:49:05.351Z,6.93
2023-05-02T00:51:34.599Z,7.57
2023-05-02T00:54:05.402Z,7.50
2023-05-02T00:56:34.829Z,7.97
2023-05-02T00:59:04.838Z,8.13
2023-05-02T01:01:51.912Z,7.47
2023-05-02T01:04:22.406Z,6.47
2023-05-02T01:07:09.587Z,6.97
2023-05-02T01:09:56.718Z,7.50
2023-05-02T01:12:56.181Z,7.18
2023-05-02T01:15:26.698Z,7.35
2023-05-02T01:18:01.743Z,6.45
2023-05-02T01:20:34.076Z,7.15
2023-05-02T01:23:05.822Z,8.05
2023-05-02T01:25:41.603Z,8.05
2023-05-02T01:28:16.265Z,7.85
2023-05-02T01:30:45.686Z,9.43
2023-05-02T01:33:16.349Z,11.30
2023-05-02T01:35:49.455Z,9.35
2023-05-02T01:38:19.167Z,11.40
2023-05-02T01:40:48.568Z,11.75
2023-05-02T01:43:21.379Z,12.38
2023-05-02T01:45:53.682Z,11.85
2023-05-02T01:48:25.591Z,12.07
2023-05-02T01:50:55.828Z,13.32
2023-05-02T01:53:26.772Z,12.27
2023-05-02T01:55:56.176Z,14.32
2023-05-02T01:58:29.392Z,12.85
2023-05-02T02:00:59.524Z,11.65
2023-05-02T02:03:33.088Z,12.65
2023-05-02T02:06:06.631Z,12.80
2023-05-02T02:08:43.222Z,12.65
2023-05-02T02:11:14.293Z,12.00
2023-05-02T02:13:46.260Z,13.43
2023-05-02T02:16:20.381Z,11.77
2023-05-02T02:18:49.287Z,11.35
2023-05-02T02:21:20.059Z,11.25
2023-05-02T02:23:50.590Z,10.27
2023-05-02T02:26:22.482Z,9.75
2023-05-02T02:28:54.159Z,10.50
2023-05-02T02:31:25.606Z,9.82
2023-05-02T02:33:55.837Z,10.63
2023-05-02T02:36:45.143Z,9.95
2023-05-02T02:39:17.257Z,9.82
2023-05-02T02:42:08.681Z,9.77
2023-05-02T02:44:53.763Z,9.00
2023-05-02T02:47:26.055Z,8.75
2023-05-02T02:50:00.441Z,7.72
2023-05-02T02:52:37.021Z,8.82
2023-05-02T02:55:18.757Z,8.88
2023-05-02T02:57:58.911Z,8.13
2023-05-02T03:00:28.505Z,8.32
2023-05-02T03:03:12.212Z,7.97
2023-05-02T03:05:40.576Z,7.13
2023-05-02T03:08:09.295Z,6.47
2023-05-02T03:10:40.972Z,6.78
2023-05-02T03:15:41.895Z,6.80
2023-05-02T03:18:12.329Z,6.32
2023-05-02T03:20:41.896Z,6.95
2023-05-02T03:23:10.108Z,7.32
2023-05-02T03:25:39.800Z,5.57
2023-05-02T03:28:12.303Z,6.35
2023-05-02T03:30:44.901Z,6.72
2023-05-02T03:33:28.632Z,6.18
2023-05-02T03:36:00.055Z,5.95
2023-05-02T03:38:33.645Z,6.03
2023-05-02T03:41:09.268Z,6.00
2023-05-02T03:43:38.560Z,7.32
2023-05-02T03:46:08.302Z,6.20
2023-05-02T03:48:43.683Z,6.22
2023-05-02T03:51:11.940Z,7.30
2023-05-02T03:53:44.556Z,5.75
2023-05-02T03:56:20.130Z,7.38
2023-05-02T03:58:56.776Z,6.28
2023-05-02T04:01:32.184Z,6.35
2023-05-02T04:04:02.396Z,6.15
2023-05-02T04:06:41.441Z,5.90
2023-05-02T04:09:11.368Z,5.68
2023-05-02T04:11:51.456Z,5.35
2023-05-02T04:14:21.512Z,5.47
2023-05-02T04:16:53.239Z,5.28
2023-05-02T04:19:38.766Z,5.20
2023-05-02T04:22:07.674Z,5.63
2023-05-02T04:24:41.046Z,4.55
2023-05-02T04:27:14.491Z,4.72
2023-05-02T04:29:44.734Z,4.60
2023-05-02T04:32:16.498Z,3.75
2023-05-02T04:34:45.565Z,5.10
2023-05-02T04:37:16.236Z,4.25
2023-05-02T04:39:50.309Z,4.18
2023-05-02T04:42:26.449Z,4.55
2023-05-02T04:45:12.355Z,5.13
2023-05-02T04:47:51.936Z,4.07
2023-05-02T04:50:20.402Z,4.28
2023-05-02T04:52:49.673Z,4.32
2023-05-02T04:55:20.804Z,3.85
2023-05-02T04:57:49.168Z,3.83
2023-05-02T05:00:21.879Z,4.85
2023-05-02T05:03:09.687Z,3.63
2023-05-02T05:05:40.211Z,4.70
2023-05-02T05:08:12.165Z,4.72
2023-05-02T05:10:41.911Z,5.20
2023-05-02T05:13:12.623Z,4.65
2023-05-02T05:15:41.875Z,4.45
2023-05-02T05:18:14.207Z,5.47
2023-05-02T05:20:42.879Z,5.50
2023-05-02T05:23:12.967Z,5.28
2023-05-02T05:25:42.942Z,5.45
2023-05-02T05:28:15.332Z,5.97
2023-05-02T05:30:44.496Z,6.45
2023-05-02T05:33:21.439Z,5.97
2023-05-02T05:35:53.463Z,5.38
2023-05-02T05:38:22.283Z,6.55
2023-05-02T05:40:51.907Z,6.07
2023-05-02T05:43:21.045Z,7.05
2023-05-02T05:45:49.481Z,6.78
2023-05-02T05:48:18.058Z,5.13
2023-05-02T05:50:48.615Z,6.50
2023-05-02T05:53:16.888Z,5.05
2023-05-02T05:55:48.165Z,3.85
2023-05-02T05:58:17.129Z,3.97
2023-05-02T06:00:47.540Z,2.75
2023-05-02T06:06:04.593Z,2.25
2023-05-02T06:08:34.173Z,2.20
2023-05-02T06:11:09.234Z,1.92
2023-05-02T06:13:39.124Z,1.98
2023-05-02T06:16:10.207Z,3.03
2023-05-02T06:18:38.877Z,2.42
2023-05-02T06:21:10.068Z,2.03
2023-05-02T06:23:41.387Z,2.13
2023-05-02T06:26:10.126Z,1.90
2023-05-02T06:28:42.417Z,1.50
2023-05-02T06:31:11.134Z,1.55
2023-05-02T06:33:46.237Z,2.28
2023-05-02T06:36:17.652Z,1.80
2023-05-02T06:38:46.623Z,1.65
2023-05-02T06:41:17.968Z,1.65
2023-05-02T06:43:47.772Z,1.38
2023-05-02T06:46:16.228Z,1.30
2023-05-02T06:48:48.510Z,1.50
2023-05-02T06:51:17.557Z,1.25
2023-05-02T06:53:48.720Z,2.22
2023-05-02T06:56:17.087Z,2.17
2023-05-02T06:58:46.587Z,1.23
2023-05-02T07:01:15.266Z,2.53
2023-05-02T07:03:49.509Z,2.17
2023-05-02T07:06:20.200Z,1.63
2023-05-02T07:08:49.636Z,1.60
2023-05-02T07:11:18.567Z,1.60
2023-05-02T07:13:47.403Z,1.25
2023-05-02T07:16:16.413Z,1.83
2023-05-02T07:18:48.284Z,1.52
2023-05-02T07:21:18.251Z,2.28
2023-05-02T07:23:46.984Z,2.00
2023-05-02T07:26:15.347Z,1.30
2023-05-02T07:28:47.040Z,1.20
2023-05-02T07:31:17.590Z,0.93
2023-05-02T07:33:49.486Z,0.70
2023-05-02T07:36:18.699Z,0.90
2023-05-02T07:38:50.412Z,0.80
2023-05-02T07:41:18.925Z,1.27
2023-05-02T07:43:47.674Z,0.60
2023-05-02T07:46:16.370Z,0.80
2023-05-02T07:48:48.342Z,0.90
2023-05-02T07:51:20.218Z,0.55
2023-05-02T07:53:53.146Z,0.95
2023-05-02T07:56:28.216Z,0.90
2023-05-02T07:58:57.728Z,0.93
2023-05-02T08:01:30.082Z,0.80
2023-05-02T08:03:59.144Z,0.80
2023-05-02T08:06:29.610Z,0.80
2023-05-02T08:09:00.707Z,0.63
2023-05-02T08:11:33.963Z,0.95
2023-05-02T08:14:03.570Z,0.90
2023-05-02T08:16:35.191Z,0.82
2023-05-02T08:19:04.523Z,0.60
2023-05-02T08:21:33.959Z,0.77
2023-05-02T08:24:02.398Z,0.80
2023-05-02T08:26:33.545Z,1.10
2023-05-02T08:29:04.503Z,0.75
2023-05-02T08:31:34.139Z,0.70
2023-05-02T08:34:03.072Z,0.80
2023-05-02T08:36:33.873Z,0.73
2023-05-02T08:39:02.758Z,0.90
2023-05-02T08:41:38.750Z,1.00
2023-05-02T08:44:10.414Z,0.88
2023-05-02T08:46:42.191Z,0.93
2023-05-02T08:49:12.782Z,0.70
2023-05-02T08:51:42.494Z,1.20
2023-05-02T08:54:12.301Z,0.73
2023-05-02T08:56:43.252Z,0.82
2023-05-02T08:59:12.561Z,0.55
2023-05-02T09:01:46.537Z,0.60
2023-05-02T09:04:21.766Z,0.50
2023-05-02T09:06:50.174Z,0.73
2023-05-02T09:09:19.214Z,0.55
2023-05-02T09:11:48.562Z,0.85
2023-05-02T09:14:18.081Z,0.98
2023-05-02T09:16:46.759Z,0.68
2023-05-02T09:19:24.677Z,0.77
2023-05-02T09:21:53.480Z,0.57
2023-05-02T09:24:22.734Z,0.95
2023-05-02T09:26:58.480Z,0.80
2023-05-02T09:29:28.193Z,1.05
2023-05-02T09:31:56.976Z,1.02
2023-05-02T09:34:25.540Z,1.05
2023-05-02T09:36:54.939Z,0.95
2023-05-02T09:39:29.002Z,0.90
2023-05-02T09:42:00.241Z,1.00
2023-05-02T09:44:37.700Z,0.82
2023-05-02T09:47:09.275Z,1.02
2023-05-02T09:49:46.244Z,0.93
2023-05-02T09:52:16.796Z,0.95
2023-05-02T09:54:46.913Z,2.33
2023-05-02T09:57:18.279Z,1.48
2023-05-02T09:59:59.500Z,1.10
2023-05-02T10:02:31.606Z,1.10
2023-05-02T10:05:09.292Z,1.45
2023-05-02T10:07:39.595Z,2.13
2023-05-02T10:10:09.438Z,1.02
2023-05-02T10:12:39.091Z,0.70
2023-05-02T10:15:08.830Z,0.88
2023-05-02T10:17:46.475Z,1.27
2023-05-02T10:20:19.958Z,1.58
2023-05-02T10:22:57.263Z,1.35
2023-05-02T10:25:28.211Z,0.98
2023-05-02T10:28:03.183Z,1.00
2023-05-02T10:30:32.173Z,1.45
2023-05-02T10:33:15.184Z,1.23
2023-05-02T10:35:46.912Z,1.70
2023-05-02T10:38:21.687Z,1.52
2023-05-02T10:40:55.934Z,1.00
2023-05-02T10:43:29.105Z,1.20
2023-05-02T10:48:33.097Z,1.30
2023-05-02T10:51:02.431Z,1.08
2023-05-02T10:53:40.136Z,1.15
2023-05-02T10:56:08.445Z,0.80
2023-05-02T10:58:36.726Z,0.70
2023-05-02T11:01:23.726Z,1.00
2023-05-02T11:03:58.447Z,0.85
2023-05-02T11:06:30.765Z,0.95
2023-05-02T11:09:14.721Z,0.75
2023-05-02T11:11:44.748Z,1.00
2023-05-02T11:14:14.353Z,1.00
2023-05-02T11:17:01.202Z,0.90
2023-05-02T11:19:31.352Z,0.90
2023-05-02T11:22:19.299Z,1.00
2023-05-02T11:24:48.563Z,1.35
2023-05-02T11:27:31.186Z,1.00
2023-05-02T11:30:01.339Z,0.93
2023-05-02T11:32:45.508Z,0.93
2023-05-02T11:35:19.265Z,1.10
2023-05-02T11:38:12.949Z,0.85
2023-05-02T11:40:41.600Z,1.30
2023-05-02T11:43:14.944Z,1.20
2023-05-02T11:45:43.916Z,1.25
2023-05-02T11:48:17.332Z,1.77
2023-05-02T11:50:50.425Z,1.50
2023-05-02T11:53:22.296Z,2.80
2023-05-02T11:55:56.232Z,3.33
2023-05-02T12:00:54.226Z,3.55
2023-05-02T12:03:41.742Z,3.92
2023-05-02T12:06:16.425Z,2.90
2023-05-02T12:08:45.377Z,3.38
2023-05-02T12:11:14.552Z,2.90
2023-05-02T12:13:50.638Z,3.95
2023-05-02T12:16:19.599Z,2.22
2023-05-02T12:18:48.742Z,1.60
2023-05-02T12:21:17.323Z,1.38
2023-05-02T12:23:47.911Z,1.30
2023-05-02T12:26:27.538Z,1.35
2023-05-02T12:28:58.316Z,1.33
2023-05-02T12:34:02.545Z,1.92
2023-05-02T12:36:33.527Z,1.90
2023-05-02T12:39:06.092Z,1.90
2023-05-02T12:41:43.716Z,3.05
2023-05-02T12:44:12.347Z,3.33
2023-05-02T12:46:58.350Z,3.85
2023-05-02T12:49:26.698Z,3.33
2023-05-02T12:51:58.283Z,2.80
2023-05-02T12:54:27.063Z,2.30
2023-05-02T12:56:57.810Z,1.98
2023-05-02T12:59:30.518Z,1.70
2023-05-02T13:01:59.257Z,1.60
2023-05-02T13:04:39.177Z,1.70
2023-05-02T13:07:08.829Z,1.70
2023-05-02T13:09:37.436Z,1.75
2023-05-02T13:12:09.350Z,2.35
2023-05-02T13:14:38.406Z,1.90
2023-05-02T13:17:08.702Z,2.35
2023-05-02T13:19:38.766Z,1.85
2023-05-02T13:22:09.121Z,1.40
2023-05-02T13:24:37.328Z,1.10
2023-05-02T13:27:07.466Z,1.52
2023-05-02T13:29:36.806Z,2.00
2023-05-02T13:32:07.751Z,2.00
2023-05-02T13:34:36.634Z,2.28
2023-05-02T13:37:05.313Z,2.30
2023-05-02T13:39:34.229Z,2.22
2023-05-02T13:42:05.946Z,2.22
2023-05-02T13:44:34.639Z,1.75
2023-05-02T13:47:04.883Z,1.70
2023-05-02T13:49:33.454Z,1.50
2023-05-02T13:52:05.515Z,2.00
2023-05-02T13:54:36.873Z,2.08
2023-05-02T13:57:12.008Z,1.80
2023-05-02T13:59:41.984Z,1.55
2023-05-02T14:02:11.415Z,1.90
2023-05-02T14:04:42.752Z,1.83
2023-05-02T14:07:13.691Z,1.35
2023-05-02T14:09:45.760Z,1.63
2023-05-02T14:12:15.352Z,1.77
2023-05-02T14:14:44.738Z,2.05
2023-05-02T14:17:14.072Z,1.25
2023-05-02T14:19:42.728Z,1.63
2023-05-02T14:22:13.790Z,1.38
2023-05-02T14:24:43.094Z,1.20
2023-05-02T14:27:18.240Z,1.42
2023-05-02T14:29:50.738Z,1.48
2023-05-02T14:32:23.165Z,1.48
2023-05-02T14:34:52.268Z,1.90
2023-05-02T14:37:21.289Z,1.55
2023-05-02T14:39:54.912Z,1.55
2023-05-02T14:44:51.947Z,1.30
2023-05-02T14:47:20.940Z,1.17
2023-05-02T14:49:49.758Z,1.33
2023-05-02T14:52:19.579Z,2.33
2023-05-02T14:54:48.176Z,1.90
2023-05-02T14:57:16.973Z,1.55
2023-05-02T14:59:45.884Z,1.65
2023-05-02T15:02:18.862Z,1.73
2023-05-02T15:04:47.836Z,1.92
2023-05-02T15:07:17.226Z,1.30
2023-05-02T15:09:46.336Z,1.50
2023-05-02T15:12:15.425Z,1.48
2023-05-02T15:14:44.908Z,1.63
2023-05-02T15:17:13.976Z,1.90
2023-05-02T15:19:42.455Z,1.30
2023-05-02T15:22:11.291Z,1.48
2023-05-02T15:24:41.688Z,1.52
2023-05-02T15:27:10.574Z,1.52
2023-05-02T15:29:42.588Z,1.17
2023-05-02T15:32:12.033Z,1.48
2023-05-02T15:34:41.551Z,1.10
2023-05-02T15:37:12.594Z,1.20
2023-05-02T15:39:44.554Z,1.20
2023-05-02T15:42:16.475Z,1.23
2023-05-02T15:44:45.640Z,2.60
2023-05-02T15:47:15.392Z,1.90
2023-05-02T15:49:44.895Z,1.55
2023-05-02T15:52:15.435Z,1.30
2023-05-02T15:54:45.969Z,1.23
2023-05-02T15:57:14.773Z,1.58
2023-05-02T15:59:46.033Z,1.52
2023-05-02T16:02:14.795Z,1.60
2023-05-02T16:04:43.800Z,2.10
2023-05-02T16:07:12.484Z,1.45
2023-05-02T16:09:43.518Z,1.55
2023-05-02T16:12:12.419Z,2.45
2023-05-02T16:14:41.119Z,1.80
2023-05-02T16:17:10.106Z,1.48
2023-05-02T16:19:39.066Z,1.45
2023-05-02T16:22:08.460Z,1.23
2023-05-02T16:24:36.797Z,1.52
2023-05-02T16:27:06.526Z,1.30
2023-05-02T16:29:37.576Z,1.20
2023-05-02T16:32:07.506Z,1.35
2023-05-02T16:34:38.307Z,1.23
2023-05-02T16:37:07.890Z,1.75
2023-05-02T16:39:36.389Z,1.83
2023-05-02T16:42:05.830Z,1.58
2023-05-02T16:44:34.815Z,1.58
2023-05-02T16:47:03.986Z,1.42
2023-05-02T16:49:32.609Z,1.38
2023-05-02T16:52:01.160Z,1.40
2023-05-02T16:54:31.464Z,1.30
2023-05-02T16:57:02.534Z,1.17
2023-05-02T16:59:31.833Z,1.33
2023-05-02T17:02:00.228Z,0.98
2023-05-02T17:04:28.564Z,1.02
2023-05-02T17:06:57.666Z,1.10
2023-05-02T17:09:28.955Z,1.25
2023-05-02T17:12:04.317Z,1.67
2023-05-02T17:14:33.533Z,2.33
2023-05-02T17:17:02.974Z,1.13
2023-05-02T17:19:32.742Z,1.50
2023-05-02T17:22:02.131Z,1.40
2023-05-02T17:24:31.567Z,1.17
2023-05-02T17:27:00.290Z,1.80
2023-05-02T17:29:29.685Z,1.50
2023-05-02T17:32:01.671Z,1.48
2023-05-02T17:34:31.068Z,2.00
2023-05-02T17:37:00.144Z,1.75
2023-05-02T17:39:28.824Z,1.88
2023-05-02T17:41:57.571Z,1.50
2023-05-02T17:44:31.099Z,1.80
2023-05-02T17:47:02.736Z,1.98
2023-05-02T17:49:32.135Z,1.60
2023-05-02T17:52:03.649Z,1.80
2023-05-02T17:54:34.071Z,1.30
2023-05-02T17:57:05.423Z,1.10
2023-05-02T17:59:34.141Z,1.50
2023-05-02T18:02:03.532Z,1.98
2023-05-02T18:04:35.574Z,1.48
2023-05-02T18:07:05.996Z,1.10
2023-05-02T18:09:35.381Z,1.75
2023-05-02T18:12:06.173Z,1.73
2023-05-02T18:14:36.188Z,1.63
2023-05-02T18:17:06.538Z,1.10
2023-05-02T18:19:38.250Z,1.60
2023-05-02T18:22:08.591Z,1.30
2023-05-02T18:24:38.172Z,1.17
2023-05-02T18:27:06.824Z,1.75
2023-05-02T18:29:38.557Z,1.23
2023-05-02T18:32:07.803Z,1.45
2023-05-02T18:34:40.018Z,1.42
2023-05-02T18:37:09.138Z,1.10
2023-05-02T18:39:38.097Z,1.35
2023-05-02T18:42:10.750Z,1.40
2023-05-02T18:44:41.597Z,1.20
2023-05-02T18:47:11.102Z,1.50
2023-05-02T18:49:42.030Z,1.77
2023-05-02T18:52:11.460Z,1.38
2023-05-02T18:54:39.918Z,1.48
2023-05-02T18:57:08.722Z,1.05
2023-05-02T18:59:41.165Z,1.20
2023-05-02T19:02:11.486Z,1.98
2023-05-02T19:04:41.001Z,1.10
2023-05-02T19:07:09.739Z,1.38
2023-05-02T19:09:40.698Z,1.63
2023-05-02T19:12:09.529Z,1.40
2023-05-02T19:14:42.195Z,1.00
2023-05-02T19:17:13.877Z,1.02
2023-05-02T19:19:42.556Z,2.58
2023-05-02T19:22:13.632Z,2.67
2023-05-02T19:24:44.304Z,1.27
2023-05-02T19:27:13.094Z,1.30
2023-05-02T19:29:43.112Z,1.10
2023-05-02T19:32:12.330Z,1.10
2023-05-02T19:34:43.360Z,1.30
2023-05-02T19:37:12.865Z,1.63
2023-05-02T19:39:41.153Z,1.58
2023-05-02T19:42:11.064Z,0.93
2023-05-02T19:44:40.815Z,1.35
2023-05-02T19:47:10.149Z,1.20
2023-05-02T19:49:40.188Z,1.38
2023-05-02T19:52:09.266Z,1.20
2023-05-02T19:54:37.873Z,1.80
2023-05-02T19:57:11.401Z,1.63
2023-05-02T19:59:40.580Z,1.23
2023-05-02T20:02:09.479Z,1.55
2023-05-02T20:04:38.090Z,1.42
2023-05-02T20:07:06.475Z,1.52
2023-05-02T20:09:37.035Z,1.60
2023-05-02T20:12:05.614Z,1.65
2023-05-02T20:14:35.273Z,1.42
2023-05-02T20:17:04.442Z,1.63
2023-05-02T20:19:33.237Z,1.60
2023-05-02T20:22:01.712Z,1.55
2023-05-02T20:24:30.583Z,1.60
2023-05-02T20:26:59.058Z,1.30
2023-05-02T20:29:27.502Z,1.45
2023-05-02T20:31:57.699Z,1.20
2023-05-02T20:34:26.134Z,1.13
2023-05-02T20:36:54.869Z,1.30
2023-05-02T20:39:23.902Z,1.48
2023-05-02T20:41:58.511Z,1.50
2023-05-02T20:44:33.435Z,1.55
2023-05-02T20:47:02.313Z,1.20
2023-05-02T20:49:32.120Z,1.38
2023-05-02T20:52:06.926Z,1.40
2023-05-02T20:54:37.782Z,1.52
2023-05-02T20:57:06.634Z,1.00
2023-05-02T20:59:35.940Z,1.13
2023-05-02T21:02:08.969Z,1.23
2023-05-02T21:04:39.868Z,1.33
2023-05-02T21:07:13.784Z,1.35
2023-05-02T21:09:45.800Z,1.30
2023-05-02T21:12:18.101Z,0.90
2023-05-02T21:14:46.680Z,1.33
2023-05-02T21:17:16.148Z,1.20
2023-05-02T21:19:47.261Z,1.27
2023-05-02T21:22:15.421Z,1.00
2023-05-02T21:24:48.065Z,1.52
2023-05-02T21:27:17.549Z,1.30
2023-05-02T21:29:46.715Z,1.15
2023-05-02T21:32:17.025Z,1.20
2023-05-02T21:34:48.276Z,1.05
2023-05-02T21:37:19.322Z,1.30
2023-05-02T21:39:47.743Z,0.90
2023-05-02T21:42:16.590Z,1.10
2023-05-02T21:44:47.547Z,1.10
2023-05-02T21:47:18.235Z,1.37
2023-05-02T21:49:48.643Z,0.98
2023-05-02T21:52:17.136Z,0.93
2023-05-02T21:54:49.864Z,1.10
2023-05-02T21:57:19.200Z,0.90
2023-05-02T21:59:48.203Z,0.85
2023-05-02T22:02:17.313Z,1.30
2023-05-02T22:04:48.248Z,1.42
2023-05-02T22:07:20.099Z,0.98
2023-05-02T22:09:48.560Z,0.90
2023-05-02T22:12:19.895Z,1.13
2023-05-02T22:14:48.512Z,1.10
2023-05-02T22:17:19.573Z,1.40
2023-05-02T22:19:51.689Z,1.10
2023-05-02T22:22:21.488Z,0.90
2023-05-02T22:24:50.121Z,1.08
2023-05-02T22:27:18.514Z,1.05
2023-05-02T22:29:47.680Z,1.15
2023-05-02T22:32:16.113Z,1.10
2023-05-02T22:34:44.427Z,0.90
2023-05-02T22:37:13.655Z,1.27
2023-05-02T22:39:41.940Z,0.77
2023-05-02T22:42:10.771Z,1.30
2023-05-02T22:44:53.114Z,1.33
2023-05-02T22:47:22.744Z,1.40
2023-05-02T22:49:52.619Z,1.20
2023-05-02T22:52:22.556Z,0.95
2023-05-02T22:54:51.299Z,1.30
2023-05-02T22:57:19.889Z,0.90
2023-05-02T22:59:48.272Z,1.10
2023-05-02T23:02:19.341Z,0.90
2023-05-02T23:04:48.269Z,1.40
2023-05-02T23:07:17.591Z,1.10
2023-05-02T23:09:46.883Z,1.25
2023-05-02T23:12:18.170Z,1.25
2023-05-02T23:14:46.823Z,1.42
2023-05-02T23:17:15.857Z,1.67
2023-05-02T23:19:44.537Z,1.15
2023-05-02T23:22:14.468Z,1.55
2023-05-02T23:24:47.248Z,1.38
2023-05-02T23:27:16.387Z,1.55
2023-05-02T23:29:46.063Z,1.33
2023-05-02T23:32:16.516Z,1.70
2023-05-02T23:34:46.484Z,1.50
2023-05-02T23:37:15.633Z,1.48
2023-05-02T23:39:45.236Z,1.38
2023-05-02T23:42:15.144Z,1.33
2023-05-02T23:44:44.721Z,1.67
2023-05-02T23:47:13.350Z,1.35
2023-05-02T23:49:42.436Z,1.58
2023-05-02T23:52:12.638Z,0.90
2023-05-02T23:54:41.306Z,1.30
2023-05-02T23:57:10.005Z,1.35
2023-05-02T23:59:40.494Z,1.70
